Time;durP1;ratioP1;P1;durP2;ratioP2;P2;SDS_P1;SDS_P2;PMS_P1;PMS_P2;Temp;Humidity;BMP_temperature;BMP_pressure;BME280_temperature;BME280_humidity;BME280_pressure;Samples;Min_cycle;Max_cycle;Signal;HPM_P1;HPM_P2
2021/10/21 00:00:11;;;;;;;4.55;1.30;;;;;;;;;;5069720;28;20052;-80
2021/10/21 00:02:38;;;;;;;3.88;1.30;;;;;;;;;;5072889;28;20064;-81
2021/10/21 00:05:05;;;;;;;4.10;1.63;;;;;;;;;;5064751;28;20048;-81
2021/10/21 00:07:31;;;;;;;3.63;1.20;;;;;;;;;;5067296;28;20060;-81
2021/10/21 00:10:01;;;;;;;3.85;1.50;;;;;;;;;;5063342;28;20056;-81
2021/10/21 00:12:28;;;;;;;3.15;1.10;;;;;;;;;;5071943;28;20044;-81
2021/10/21 00:14:54;;;;;;;2.85;1.33;;;;;;;;;;5071413;28;20040;-81
2021/10/21 00:17:21;;;;;;;2.78;1.45;;;;;;;;;;5071616;28;20052;-80
2021/10/21 00:19:47;;;;;;;5.82;1.55;;;;;;;;;;5072346;28;20090;-81
2021/10/21 00:22:14;;;;;;;3.67;1.40;;;;;;;;;;5070809;28;20071;-81
2021/10/21 00:24:40;;;;;;;2.92;1.40;;;;;;;;;;5068106;28;20455;-82
2021/10/21 00:27:06;;;;;;;3.30;1.38;;;;;;;;;;5073293;28;20075;-81
2021/10/21 00:29:33;;;;;;;2.35;1.27;;;;;;;;;;5070948;28;20071;-81
2021/10/21 00:31:59;;;;;;;3.50;1.20;;;;;;;;;;5074107;28;20056;-83
2021/10/21 00:34:26;;;;;;;3.53;1.15;;;;;;;;;;5067431;28;20051;-82
2021/10/21 00:36:52;;;;;;;2.85;1.10;;;;;;;;;;5063587;28;20032;-82
2021/10/21 00:39:18;;;;;;;2.40;1.10;;;;;;;;;;5070518;28;20063;-81
2021/10/21 00:41:45;;;;;;;4.18;1.40;;;;;;;;;;5045692;28;20032;-80
2021/10/21 00:44:12;;;;;;;3.20;1.10;;;;;;;;;;5069022;28;20499;-81
2021/10/21 00:46:40;;;;;;;3.28;1.38;;;;;;;;;;5069589;28;20068;-81
2021/10/21 00:49:07;;;;;;;2.50;1.17;;;;;;;;;;5068314;28;20066;-81
2021/10/21 00:51:34;;;;;;;3.13;1.25;;;;;;;;;;5062022;28;20056;-82
2021/10/21 00:54:02;;;;;;;3.47;1.10;;;;;;;;;;5062821;28;20078;-82
2021/10/21 00:56:28;;;;;;;3.95;1.30;;;;;;;;;;5059926;28;20055;-83
2021/10/21 00:58:55;;;;;;;3.13;1.38;;;;;;;;;;5070543;28;20456;-82
2021/10/21 01:01:22;;;;;;;2.83;1.05;;;;;;;;;;5070205;28;20526;-83
2021/10/21 01:03:50;;;;;;;4.55;1.13;;;;;;;;;;5070348;28;20060;-83
2021/10/21 01:06:18;;;;;;;5.43;1.20;;;;;;;;;;5070594;28;20028;-84
2021/10/21 01:08:45;;;;;;;2.75;1.00;;;;;;;;;;5070590;28;20415;-84
2021/10/21 01:11:13;;;;;;;3.30;1.27;;;;;;;;;;5069894;28;20060;-83
2021/10/21 01:13:40;;;;;;;2.60;0.98;;;;;;;;;;5070524;28;20060;-84
2021/10/21 01:16:07;;;;;;;2.70;1.10;;;;;;;;;;5066786;28;20052;-81
2021/10/21 01:18:37;;;;;;;3.30;1.10;;;;;;;;;;5070106;28;20565;-82
2021/10/21 01:21:08;;;;;;;4.10;1.52;;;;;;;;;;5069948;28;20114;-82
2021/10/21 01:23:35;;;;;;;2.63;0.95;;;;;;;;;;5068764;28;20429;-83
2021/10/21 01:26:01;;;;;;;4.30;1.20;;;;;;;;;;5059888;28;20067;-83
2021/10/21 01:28:28;;;;;;;3.60;1.40;;;;;;;;;;5069330;28;20083;-82
2021/10/21 01:30:54;;;;;;;3.20;1.10;;;;;;;;;;5070035;28;20033;-82
2021/10/21 01:33:21;;;;;;;3.40;1.30;;;;;;;;;;5063265;28;20113;-80
2021/10/21 01:35:47;;;;;;;2.90;0.95;;;;;;;;;;5069729;28;20519;-81
2021/10/21 01:38:13;;;;;;;3.83;1.00;;;;;;;;;;5070138;28;20137;-81
2021/10/21 01:40:40;;;;;;;3.03;1.10;;;;;;;;;;5067435;28;20060;-82
2021/10/21 01:43:08;;;;;;;3.25;1.20;;;;;;;;;;5064880;28;20057;-80
2021/10/21 01:45:35;;;;;;;3.38;1.27;;;;;;;;;;5064783;28;20085;-82
2021/10/21 01:48:02;;;;;;;2.97;1.13;;;;;;;;;;5072989;28;20542;-83
2021/10/21 01:50:29;;;;;;;2.95;1.20;;;;;;;;;;5069869;28;20426;-82
2021/10/21 01:52:56;;;;;;;3.60;1.25;;;;;;;;;;5073424;28;20513;-83
2021/10/21 01:55:23;;;;;;;3.70;1.10;;;;;;;;;;5066122;28;20178;-82
2021/10/21 01:57:49;;;;;;;2.20;1.10;;;;;;;;;;5067920;28;20072;-82
2021/10/21 02:00:17;;;;;;;3.20;0.80;;;;;;;;;;5069199;28;20056;-84
2021/10/21 02:02:44;;;;;;;1.83;0.90;;;;;;;;;;5069676;28;20573;-83
2021/10/21 02:05:12;;;;;;;3.95;1.00;;;;;;;;;;5070253;28;20075;-83
2021/10/21 02:07:38;;;;;;;2.00;0.90;;;;;;;;;;5069150;28;20090;-84
2021/10/21 02:10:06;;;;;;;2.72;0.98;;;;;;;;;;5070163;28;20037;-83
2021/10/21 02:12:32;;;;;;;4.15;0.88;;;;;;;;;;5068608;28;20202;-84
2021/10/21 02:14:58;;;;;;;2.70;0.80;;;;;;;;;;5068831;28;20605;-84
2021/10/21 02:17:25;;;;;;;4.57;1.02;;;;;;;;;;5063745;28;20075;-85
2021/10/21 02:19:52;;;;;;;4.03;0.98;;;;;;;;;;5071187;28;20056;-83
2021/10/21 02:22:19;;;;;;;3.80;1.05;;;;;;;;;;5069076;28;20229;-83
2021/10/21 02:24:46;;;;;;;2.60;0.80;;;;;;;;;;5066085;28;20064;-82
2021/10/21 02:27:12;;;;;;;4.25;1.10;;;;;;;;;;5068468;28;20068;-83
2021/10/21 02:29:39;;;;;;;3.45;0.93;;;;;;;;;;5061203;28;20088;-83
2021/10/21 02:32:06;;;;;;;3.47;1.00;;;;;;;;;;5067921;28;20064;-84
2021/10/21 02:34:33;;;;;;;3.45;1.02;;;;;;;;;;5069698;28;20065;-82
2021/10/21 02:36:59;;;;;;;2.45;0.90;;;;;;;;;;5071964;28;20052;-82
2021/10/21 02:39:26;;;;;;;3.97;0.80;;;;;;;;;;5066299;28;20086;-83
2021/10/21 02:41:52;;;;;;;5.50;1.48;;;;;;;;;;5069399;28;20064;-83
2021/10/21 02:44:18;;;;;;;2.17;0.80;;;;;;;;;;5066687;28;20052;-83
2021/10/21 02:46:45;;;;;;;3.35;1.00;;;;;;;;;;5068938;28;20055;-82
2021/10/21 02:49:12;;;;;;;5.95;1.00;;;;;;;;;;5067477;28;20071;-83
2021/10/21 02:51:40;;;;;;;3.58;0.80;;;;;;;;;;5064871;28;20138;-84
2021/10/21 02:54:07;;;;;;;1.67;0.98;;;;;;;;;;5072505;28;20445;-82
2021/10/21 02:56:34;;;;;;;2.25;1.00;;;;;;;;;;5070045;28;20067;-84
2021/10/21 02:59:00;;;;;;;2.38;0.80;;;;;;;;;;5059145;28;20106;-84
2021/10/21 03:01:26;;;;;;;2.75;1.00;;;;;;;;;;5066860;28;20119;-83
2021/10/21 03:03:53;;;;;;;3.38;1.02;;;;;;;;;;5069049;28;20064;-84
2021/10/21 03:06:19;;;;;;;2.92;0.90;;;;;;;;;;5064860;28;20063;-83
2021/10/21 03:08:46;;;;;;;3.55;0.90;;;;;;;;;;5068280;28;20469;-83
2021/10/21 03:11:12;;;;;;;4.10;0.90;;;;;;;;;;5067536;28;20063;-81
2021/10/21 03:13:39;;;;;;;3.63;1.15;;;;;;;;;;5068309;28;20149;-82
2021/10/21 03:16:05;;;;;;;3.42;0.93;;;;;;;;;;5063578;28;20400;-81
2021/10/21 03:18:32;;;;;;;2.97;0.80;;;;;;;;;;5067647;28;20482;-81
2021/10/21 03:20:58;;;;;;;4.20;1.05;;;;;;;;;;5069782;28;20055;-81
2021/10/21 03:23:26;;;;;;;3.85;0.98;;;;;;;;;;5067656;28;20056;-82
2021/10/21 03:25:52;;;;;;;2.83;0.90;;;;;;;;;;5067147;28;20048;-83
2021/10/21 03:28:19;;;;;;;1.98;0.85;;;;;;;;;;5064960;28;20457;-82
2021/10/21 03:30:45;;;;;;;2.42;0.80;;;;;;;;;;5063431;28;20028;-82
2021/10/21 03:33:12;;;;;;;2.95;0.88;;;;;;;;;;5065001;28;20021;-84
2021/10/21 03:35:39;;;;;;;4.53;0.93;;;;;;;;;;5068915;28;20074;-82
2021/10/21 03:38:06;;;;;;;1.70;0.70;;;;;;;;;;5066840;28;20061;-82
2021/10/21 03:40:32;;;;;;;1.52;0.60;;;;;;;;;;5065615;28;21799;-82
2021/10/21 03:42:59;;;;;;;3.83;0.98;;;;;;;;;;5061661;28;20083;-82
2021/10/21 03:45:25;;;;;;;3.13;0.88;;;;;;;;;;5072771;28;20056;-83
2021/10/21 03:47:52;;;;;;;5.28;1.13;;;;;;;;;;5068925;28;20036;-82
2021/10/21 03:50:18;;;;;;;2.55;0.85;;;;;;;;;;5071208;28;20024;-83
2021/10/21 03:52:45;;;;;;;2.47;1.08;;;;;;;;;;5060295;28;20057;-83
2021/10/21 03:55:11;;;;;;;4.53;1.25;;;;;;;;;;5068557;28;20052;-83
2021/10/21 03:57:37;;;;;;;2.90;1.00;;;;;;;;;;5063431;28;20134;-84
2021/10/21 04:00:07;;;;;;;4.38;1.10;;;;;;;;;;5056936;28;20435;-83
2021/10/21 04:02:37;;;;;;;3.83;1.20;;;;;;;;;;5065964;28;20056;-81
2021/10/21 04:05:04;;;;;;;2.30;0.85;;;;;;;;;;5067865;28;20066;-81
2021/10/21 04:07:30;;;;;;;4.03;1.10;;;;;;;;;;5066989;28;20063;-84
2021/10/21 04:09:56;;;;;;;1.90;0.80;;;;;;;;;;5070788;28;20068;-83
2021/10/21 04:12:23;;;;;;;3.22;0.90;;;;;;;;;;5068508;28;20074;-81
2021/10/21 04:14:52;;;;;;;3.10;1.00;;;;;;;;;;5065881;28;20052;-82
2021/10/21 04:17:21;;;;;;;3.15;0.93;;;;;;;;;;5067816;28;20033;-82
2021/10/21 04:19:48;;;;;;;3.45;1.00;;;;;;;;;;5067357;28;20064;-82
2021/10/21 04:22:15;;;;;;;3.75;1.33;;;;;;;;;;5060369;28;20077;-82
2021/10/21 04:24:42;;;;;;;4.20;1.20;;;;;;;;;;5064026;28;20557;-83
2021/10/21 04:27:09;;;;;;;3.13;1.00;;;;;;;;;;5073710;28;20040;-81
2021/10/21 04:29:35;;;;;;;1.35;0.70;;;;;;;;;;5070944;28;20154;-82
2021/10/21 04:32:01;;;;;;;2.85;1.05;;;;;;;;;;5069037;28;20072;-83
2021/10/21 04:34:28;;;;;;;2.47;1.02;;;;;;;;;;5062589;28;20061;-82
2021/10/21 04:36:54;;;;;;;3.05;0.85;;;;;;;;;;5066019;28;20064;-82
2021/10/21 04:39:21;;;;;;;2.42;0.90;;;;;;;;;;5068593;28;20045;-82
2021/10/21 04:41:56;;;;;;;3.60;0.85;;;;;;;;;;5068301;28;20060;-81
2021/10/21 04:44:22;;;;;;;2.40;0.60;;;;;;;;;;5074579;28;20482;-81
2021/10/21 04:46:49;;;;;;;1.52;0.90;;;;;;;;;;5070029;28;20101;-83
2021/10/21 04:49:16;;;;;;;3.30;1.40;;;;;;;;;;5070776;28;20068;-82
2021/10/21 04:51:42;;;;;;;3.22;0.90;;;;;;;;;;5070676;28;20057;-81
2021/10/21 04:54:09;;;;;;;2.53;1.00;;;;;;;;;;5063557;28;20165;-81
2021/10/21 04:56:35;;;;;;;3.92;0.82;;;;;;;;;;5069848;28;20545;-81
2021/10/21 04:59:02;;;;;;;3.45;1.00;;;;;;;;;;5065443;28;20456;-82
2021/10/21 05:01:28;;;;;;;2.90;1.10;;;;;;;;;;5068093;28;20463;-81
2021/10/21 05:03:55;;;;;;;3.10;0.90;;;;;;;;;;5066882;28;20449;-82
2021/10/21 05:06:22;;;;;;;3.03;1.00;;;;;;;;;;5066952;28;20056;-82
2021/10/21 05:08:48;;;;;;;5.35;1.10;;;;;;;;;;5067829;28;20094;-83
2021/10/21 05:11:15;;;;;;;3.10;1.15;;;;;;;;;;5063945;28;20060;-83
2021/10/21 05:13:41;;;;;;;2.55;0.90;;;;;;;;;;5067497;28;20061;-83
2021/10/21 05:16:07;;;;;;;1.77;0.77;;;;;;;;;;5069336;28;20056;-82
2021/10/21 05:18:34;;;;;;;3.15;1.15;;;;;;;;;;5068519;28;20121;-82
2021/10/21 05:21:00;;;;;;;4.53;1.10;;;;;;;;;;5066443;28;20060;-82
2021/10/21 05:23:27;;;;;;;1.92;0.90;;;;;;;;;;5063567;28;20059;-82
2021/10/21 05:25:53;;;;;;;2.50;0.88;;;;;;;;;;5070464;28;20118;-82
2021/10/21 05:28:20;;;;;;;2.20;1.10;;;;;;;;;;5065034;28;20098;-82
2021/10/21 05:30:47;;;;;;;1.92;0.73;;;;;;;;;;5076743;28;20048;-82
2021/10/21 05:33:14;;;;;;;2.22;0.88;;;;;;;;;;5067317;28;20056;-82
2021/10/21 05:35:40;;;;;;;2.38;1.00;;;;;;;;;;5065111;28;20060;-82
2021/10/21 05:38:07;;;;;;;1.65;0.88;;;;;;;;;;5068746;28;20024;-83
2021/10/21 05:40:33;;;;;;;2.20;0.80;;;;;;;;;;5064982;28;20508;-82
2021/10/21 05:42:59;;;;;;;2.53;0.80;;;;;;;;;;5074770;28;20064;-81
2021/10/21 05:45:26;;;;;;;2.42;0.88;;;;;;;;;;5072364;28;20059;-83
2021/10/21 05:47:52;;;;;;;2.72;0.88;;;;;;;;;;5063729;28;20118;-82
2021/10/21 05:50:19;;;;;;;4.45;1.10;;;;;;;;;;5064582;28;20072;-83
2021/10/21 05:52:45;;;;;;;3.30;0.90;;;;;;;;;;5066854;28;20098;-81
2021/10/21 05:55:12;;;;;;;2.28;0.73;;;;;;;;;;5066077;28;20053;-82
2021/10/21 05:57:38;;;;;;;3.35;0.93;;;;;;;;;;5065184;28;20064;-82
2021/10/21 06:00:08;;;;;;;2.85;0.80;;;;;;;;;;5066318;28;20064;-82
2021/10/21 06:02:35;;;;;;;2.70;0.90;;;;;;;;;;5066471;28;21507;-82
2021/10/21 06:05:01;;;;;;;3.33;1.15;;;;;;;;;;5066536;28;20506;-82
2021/10/21 06:07:27;;;;;;;2.25;0.90;;;;;;;;;;5064667;28;20064;-84
2021/10/21 06:09:56;;;;;;;3.22;0.93;;;;;;;;;;5056380;28;20068;-84
2021/10/21 06:12:26;;;;;;;2.05;0.98;;;;;;;;;;5067309;28;20500;-83
2021/10/21 06:14:52;;;;;;;1.73;0.90;;;;;;;;;;5063326;28;20098;-83
2021/10/21 06:17:19;;;;;;;3.10;1.02;;;;;;;;;;5067014;28;20062;-82
2021/10/21 06:19:45;;;;;;;1.83;0.77;;;;;;;;;;5059795;28;20053;-83
2021/10/21 06:22:14;;;;;;;2.47;0.80;;;;;;;;;;5061559;28;20133;-83
2021/10/21 06:24:40;;;;;;;3.55;1.00;;;;;;;;;;5066830;28;20040;-78
2021/10/21 06:27:06;;;;;;;3.35;1.00;;;;;;;;;;5061027;28;20067;-78
2021/10/21 06:29:33;;;;;;;3.17;0.90;;;;;;;;;;5059802;28;20975;-78
2021/10/21 06:32:00;;;;;;;2.38;0.90;;;;;;;;;;5060735;28;20060;-77
2021/10/21 06:34:27;;;;;;;9.27;1.10;;;;;;;;;;5054529;28;20465;-78
2021/10/21 06:36:53;;;;;;;3.45;1.13;;;;;;;;;;5065285;28;20051;-78
2021/10/21 06:39:20;;;;;;;2.00;1.20;;;;;;;;;;5055106;28;20453;-78
2021/10/21 06:41:46;;;;;;;2.45;0.90;;;;;;;;;;5063721;28;20061;-78
2021/10/21 06:44:13;;;;;;;3.78;1.00;;;;;;;;;;5061855;28;20496;-78
2021/10/21 06:46:39;;;;;;;3.97;1.00;;;;;;;;;;5059987;28;20068;-78
2021/10/21 06:49:06;;;;;;;4.00;1.05;;;;;;;;;;5060435;28;20064;-78
2021/10/21 06:51:32;;;;;;;1.90;0.80;;;;;;;;;;5060904;28;20090;-78
2021/10/21 06:53:59;;;;;;;1.83;0.85;;;;;;;;;;5059771;28;20052;-78
2021/10/21 06:56:25;;;;;;;3.55;0.77;;;;;;;;;;5066453;28;20071;-78
2021/10/21 06:58:52;;;;;;;2.35;0.82;;;;;;;;;;5062597;28;20438;-77
2021/10/21 07:01:18;;;;;;;2.53;0.80;;;;;;;;;;5065373;28;20052;-77
2021/10/21 07:03:45;;;;;;;1.92;0.80;;;;;;;;;;5066535;28;20052;-76
2021/10/21 07:06:11;;;;;;;2.53;0.90;;;;;;;;;;5068514;28;20060;-77
2021/10/21 07:08:39;;;;;;;2.38;1.00;;;;;;;;;;5060534;28;20067;-77
2021/10/21 07:11:06;;;;;;;2.17;1.00;;;;;;;;;;5070301;28;20060;-77
2021/10/21 07:13:32;;;;;;;2.38;0.80;;;;;;;;;;5068082;28;22202;-77
2021/10/21 07:15:59;;;;;;;2.90;0.90;;;;;;;;;;5068084;28;20078;-77
2021/10/21 07:18:25;;;;;;;1.98;0.85;;;;;;;;;;5065084;28;20145;-77
2021/10/21 07:20:52;;;;;;;3.20;1.00;;;;;;;;;;5066950;28;20064;-77
2021/10/21 07:23:18;;;;;;;1.73;0.80;;;;;;;;;;5057024;28;20105;-78
2021/10/21 07:25:44;;;;;;;2.92;0.90;;;;;;;;;;5069855;28;20068;-77
2021/10/21 07:28:11;;;;;;;2.30;0.90;;;;;;;;;;5064654;28;20550;-78
2021/10/21 07:30:38;;;;;;;1.70;0.77;;;;;;;;;;5067280;28;20072;-77
2021/10/21 07:33:04;;;;;;;2.40;0.90;;;;;;;;;;5064834;28;20048;-78
2021/10/21 07:35:31;;;;;;;3.47;1.00;;;;;;;;;;5067255;28;20067;-78
2021/10/21 07:38:01;;;;;;;1.92;0.98;;;;;;;;;;5067934;28;20063;-78
2021/10/21 07:40:28;;;;;;;3.22;0.88;;;;;;;;;;5056854;28;20090;-76
2021/10/21 07:42:54;;;;;;;2.67;1.00;;;;;;;;;;5065597;28;20097;-75
2021/10/21 07:45:20;;;;;;;2.97;1.15;;;;;;;;;;5062048;28;20055;-77
2021/10/21 07:47:47;;;;;;;2.38;0.93;;;;;;;;;;5060221;28;20512;-77
2021/10/21 07:50:14;;;;;;;3.30;1.00;;;;;;;;;;5065546;28;20075;-77
2021/10/21 07:52:42;;;;;;;2.30;0.80;;;;;;;;;;5067533;28;20060;-77
2021/10/21 07:55:09;;;;;;;3.35;1.15;;;;;;;;;;5066647;28;20060;-77
2021/10/21 07:57:36;;;;;;;3.38;0.88;;;;;;;;;;5066863;28;20068;-77
2021/10/21 08:00:07;;;;;;;2.08;0.95;;;;;;;;;;5067330;28;20055;-77
2021/10/21 08:02:33;;;;;;;3.35;0.98;;;;;;;;;;5070148;28;20311;-77
2021/10/21 08:05:00;;;;;;;3.15;1.08;;;;;;;;;;5070537;28;20036;-77
2021/10/21 08:07:26;;;;;;;3.58;1.00;;;;;;;;;;5069705;28;20147;-78
2021/10/21 08:09:53;;;;;;;3.22;0.98;;;;;;;;;;5066910;28;20110;-77
2021/10/21 08:12:19;;;;;;;2.85;0.90;;;;;;;;;;5070247;28;20074;-77
2021/10/21 08:14:46;;;;;;;3.33;1.10;;;;;;;;;;5072522;28;20056;-77
2021/10/21 08:17:12;;;;;;;2.30;0.82;;;;;;;;;;5068467;28;20028;-77
2021/10/21 08:19:38;;;;;;;1.92;0.85;;;;;;;;;;5073316;28;20492;-76
2021/10/21 08:22:05;;;;;;;3.70;1.00;;;;;;;;;;5062951;28;20072;-77
2021/10/21 08:24:31;;;;;;;2.25;0.77;;;;;;;;;;5071312;28;20052;-77
2021/10/21 08:26:58;;;;;;;1.60;0.85;;;;;;;;;;5067234;28;20410;-77
2021/10/21 08:29:24;;;;;;;3.05;1.20;;;;;;;;;;5068512;28;20068;-77
2021/10/21 08:31:55;;;;;;;3.13;0.85;;;;;;;;;;5069634;28;20064;-78
2021/10/21 08:34:21;;;;;;;3.27;0.90;;;;;;;;;;5064057;28;20061;-77
2021/10/21 08:36:48;;;;;;;3.28;1.00;;;;;;;;;;5071317;28;20491;-77
2021/10/21 08:39:14;;;;;;;2.45;0.85;;;;;;;;;;5071754;28;20104;-76
2021/10/21 08:41:42;;;;;;;2.83;0.93;;;;;;;;;;5066306;28;20052;-77
2021/10/21 08:44:09;;;;;;;1.92;0.80;;;;;;;;;;5069354;28;20066;-79
2021/10/21 08:46:36;;;;;;;3.65;0.93;;;;;;;;;;5069091;28;20452;-78
2021/10/21 08:49:03;;;;;;;2.38;0.80;;;;;;;;;;5077395;28;20125;-77
2021/10/21 08:51:31;;;;;;;2.17;0.70;;;;;;;;;;5070418;28;20052;-78
2021/10/21 08:53:58;;;;;;;2.10;0.80;;;;;;;;;;5070627;28;20052;-77
2021/10/21 08:56:27;;;;;;;1.77;0.80;;;;;;;;;;5064332;28;20060;-78
2021/10/21 08:58:57;;;;;;;3.25;0.85;;;;;;;;;;5061919;28;20065;-77
2021/10/21 09:07:54;;;;;;;2.42;0.85;;;;;;;;;;5059910;28;20580;-72
2021/10/21 09:09:33;;;;;;;2.60;1.15;;;;;;;;;;5069571;28;20064;-79
2021/10/21 09:12:08;;;;;;;1.98;0.73;;;;;;;;;;5064946;28;20079;-79
2021/10/21 09:14:35;;;;;;;2.20;0.93;;;;;;;;;;5064741;28;20036;-79
2021/10/21 09:17:03;;;;;;;2.47;0.85;;;;;;;;;;5071270;28;20347;-77
2021/10/21 09:19:29;;;;;;;4.10;1.00;;;;;;;;;;5063732;28;20135;-78
2021/10/21 09:21:56;;;;;;;2.05;0.70;;;;;;;;;;5053113;28;20068;-78
2021/10/21 09:24:33;;;;;;;1.90;0.90;;;;;;;;;;5060338;28;20044;-77
2021/10/21 09:26:59;;;;;;;3.28;0.80;;;;;;;;;;5058391;28;20099;-79
2021/10/21 09:29:26;;;;;;;3.67;1.05;;;;;;;;;;5066903;28;20550;-79
2021/10/21 09:32:11;;;;;;;2.05;0.73;;;;;;;;;;5070755;28;20588;-79
2021/10/21 09:34:42;;;;;;;2.92;0.80;;;;;;;;;;5044462;28;20113;-79
2021/10/21 09:37:08;;;;;;;;;;;;;;;;;;5067664;28;20066;-79
2021/10/21 09:39:45;;;;;;;3.45;0.90;;;;;;;;;;5062868;28;20508;-78
2021/10/21 09:42:12;;;;;;;2.05;0.68;;;;;;;;;;5067523;28;20516;-78
2021/10/21 09:44:39;;;;;;;2.55;0.60;;;;;;;;;;5061277;28;20040;-78
2021/10/21 09:47:21;;;;;;;2.00;0.85;;;;;;;;;;5049486;28;20036;-77
2021/10/21 09:49:53;;;;;;;2.25;1.10;;;;;;;;;;5074562;28;20061;-78
2021/10/21 09:52:21;;;;;;;2.22;0.73;;;;;;;;;;5063013;28;20037;-78
2021/10/21 09:54:48;;;;;;;2.40;0.85;;;;;;;;;;5064190;28;20040;-78
2021/10/21 09:57:18;;;;;;;3.60;1.02;;;;;;;;;;5062586;28;20036;-78
2021/10/21 09:59:45;;;;;;;2.20;0.65;;;;;;;;;;5070215;28;20055;-80
2021/10/21 10:02:20;;;;;;;2.30;0.75;;;;;;;;;;5068101;28;20028;-78
2021/10/21 10:04:48;;;;;;;2.85;0.70;;;;;;;;;;5065314;28;20061;-78
2021/10/21 10:07:15;;;;;;;1.83;0.70;;;;;;;;;;5067181;28;20057;-79
2021/10/21 10:09:41;;;;;;;2.00;0.70;;;;;;;;;;5067376;28;20060;-78
2021/10/21 10:12:08;;;;;;;2.03;0.90;;;;;;;;;;5062299;28;20068;-78
2021/10/21 10:14:45;;;;;;;3.38;0.80;;;;;;;;;;5063656;28;20336;-78
2021/10/21 10:17:12;;;;;;;1.75;0.63;;;;;;;;;;5062664;28;20478;-78
2021/10/21 10:19:49;;;;;;;1.05;0.65;;;;;;;;;;5070908;28;20052;-78
2021/10/21 10:22:20;;;;;;;1.50;0.70;;;;;;;;;;5063167;28;20076;-78
2021/10/21 10:24:47;;;;;;;2.33;0.80;;;;;;;;;;5060833;28;20449;-78
2021/10/21 10:27:21;;;;;;;1.67;0.68;;;;;;;;;;5058197;28;20086;-78
2021/10/21 10:29:48;;;;;;;1.48;0.60;;;;;;;;;;5063509;28;20445;-77
2021/10/21 10:32:29;;;;;;;2.45;0.88;;;;;;;;;;5062872;28;20101;-78
2021/10/21 10:34:56;;;;;;;2.42;0.65;;;;;;;;;;5063354;28;20056;-77
2021/10/21 10:37:22;;;;;;;1.45;0.63;;;;;;;;;;5057914;28;20067;-78
2021/10/21 10:39:50;;;;;;;3.28;0.90;;;;;;;;;;5059611;28;20132;-78
2021/10/21 10:42:17;;;;;;;2.22;0.77;;;;;;;;;;5064827;28;20103;-78
2021/10/21 10:44:49;;;;;;;2.45;0.70;;;;;;;;;;5061994;28;20117;-78
2021/10/21 10:47:15;;;;;;;1.50;0.60;;;;;;;;;;5053084;28;20068;-78
2021/10/21 10:49:44;;;;;;;1.92;0.70;;;;;;;;;;5066067;28;20068;-79
2021/10/21 10:52:17;;;;;;;2.60;0.60;;;;;;;;;;5067991;28;20090;-79
2021/10/21 10:54:46;;;;;;;1.13;0.60;;;;;;;;;;5063650;28;20067;-78
2021/10/21 10:57:25;;;;;;;2.10;0.70;;;;;;;;;;5070709;28;20072;-78
2021/10/21 10:59:52;;;;;;;1.55;0.50;;;;;;;;;;5065826;28;20063;-79
2021/10/21 11:02:25;;;;;;;2.95;0.70;;;;;;;;;;5065756;28;20060;-79
2021/10/21 11:04:52;;;;;;;2.40;0.63;;;;;;;;;;5066505;28;20102;-78
2021/10/21 11:07:19;;;;;;;1.52;0.65;;;;;;;;;;5057512;28;20059;-79
2021/10/21 11:09:49;;;;;;;2.58;0.80;;;;;;;;;;5049889;28;20071;-79
2021/10/21 11:12:22;;;;;;;0.95;0.40;;;;;;;;;;5027704;28;20102;-80
2021/10/21 11:14:55;;;;;;;0.65;0.50;;;;;;;;;;5067513;28;20059;-78
2021/10/21 11:17:40;;;;;;;1.50;0.50;;;;;;;;;;5059301;28;20057;-79
2021/10/21 11:20:06;;;;;;;4.18;1.60;;;;;;;;;;5060964;28;20442;-80
2021/10/21 11:22:34;;;;;;;3.08;1.02;;;;;;;;;;5063108;28;20052;-81
2021/10/21 11:25:06;;;;;;;2.50;1.30;;;;;;;;;;5060845;28;20028;-81
2021/10/21 11:27:34;;;;;;;4.70;1.30;;;;;;;;;;5063236;28;20094;-80
2021/10/21 11:30:11;;;;;;;3.20;1.15;;;;;;;;;;5063974;28;20060;-79
2021/10/21 11:32:39;;;;;;;4.57;1.50;;;;;;;;;;5064684;28;20400;-80
2021/10/21 11:35:13;;;;;;;3.17;1.20;;;;;;;;;;5066339;28;20101;-80
2021/10/21 11:37:43;;;;;;;2.97;1.08;;;;;;;;;;5064242;28;20044;-81
2021/10/21 11:40:16;;;;;;;4.77;1.40;;;;;;;;;;5063066;28;20316;-80
2021/10/21 11:42:49;;;;;;;5.00;1.02;;;;;;;;;;5055782;28;20465;-81
2021/10/21 11:45:15;;;;;;;4.45;1.10;;;;;;;;;;5061171;28;20056;-82
2021/10/21 11:47:42;;;;;;;2.60;1.50;;;;;;;;;;5061698;28;20421;-83
2021/10/21 11:50:08;;;;;;;7.45;0.95;;;;;;;;;;5060445;28;20064;-81
2021/10/21 11:52:36;;;;;;;3.92;1.15;;;;;;;;;;5059093;28;20054;-81
2021/10/21 11:55:02;;;;;;;5.85;1.05;;;;;;;;;;5059546;28;20478;-82
2021/10/21 11:57:32;;;;;;;4.13;1.17;;;;;;;;;;5062577;28;20140;-83
2021/10/21 11:59:59;;;;;;;3.67;0.90;;;;;;;;;;5052825;28;20141;-83
2021/10/21 12:02:29;;;;;;;4.53;1.00;;;;;;;;;;5058339;28;20056;-82
2021/10/21 12:04:56;;;;;;;2.10;0.90;;;;;;;;;;5062549;28;20071;-81
2021/10/21 12:07:23;;;;;;;9.75;1.52;;;;;;;;;;5056755;28;20083;-82
2021/10/21 12:09:49;;;;;;;5.13;0.98;;;;;;;;;;5060888;28;20508;-82
2021/10/21 12:12:16;;;;;;;5.75;1.17;;;;;;;;;;5066010;28;20566;-82
2021/10/21 12:14:43;;;;;;;1.17;0.60;;;;;;;;;;5071278;28;20049;-82
2021/10/21 12:17:10;;;;;;;2.20;0.80;;;;;;;;;;5067094;28;20500;-81
2021/10/21 12:19:39;;;;;;;3.00;0.80;;;;;;;;;;5063704;28;20060;-82
2021/10/21 12:22:13;;;;;;;4.53;0.98;;;;;;;;;;5058507;28;20499;-83
2021/10/21 12:24:42;;;;;;;6.63;0.85;;;;;;;;;;5061222;28;20075;-83
2021/10/21 12:27:09;;;;;;;6.57;0.93;;;;;;;;;;5065054;28;20063;-83
2021/10/21 12:29:42;;;;;;;3.05;0.80;;;;;;;;;;5059715;28;21213;-83
2021/10/21 12:32:10;;;;;;;3.33;0.90;;;;;;;;;;5067687;28;20083;-82
2021/10/21 12:34:36;;;;;;;4.63;0.65;;;;;;;;;;5062155;28;20110;-81
2021/10/21 12:37:09;;;;;;;1.85;0.85;;;;;;;;;;5066737;28;20086;-82
2021/10/21 12:39:36;;;;;;;2.45;0.70;;;;;;;;;;5064164;28;20117;-82
2021/10/21 12:42:02;;;;;;;2.97;0.80;;;;;;;;;;5066986;28;20032;-82
2021/10/21 12:44:33;;;;;;;2.35;0.63;;;;;;;;;;5065571;28;20070;-82
2021/10/21 12:47:08;;;;;;;2.83;0.90;;;;;;;;;;5065602;28;20060;-81
2021/10/21 12:49:35;;;;;;;3.50;1.25;;;;;;;;;;5068852;28;20068;-82
2021/10/21 12:52:05;;;;;;;3.83;0.80;;;;;;;;;;5067965;28;20064;-81
2021/10/21 12:54:31;;;;;;;4.80;0.75;;;;;;;;;;5068424;28;20036;-81
2021/10/21 12:57:00;;;;;;;1.55;0.70;;;;;;;;;;5065524;28;20056;-82
2021/10/21 12:59:30;;;;;;;2.75;0.85;;;;;;;;;;5069662;28;20059;-82
2021/10/21 13:02:01;;;;;;;2.08;0.75;;;;;;;;;;5071194;28;20551;-81
2021/10/21 13:04:38;;;;;;;5.30;0.98;;;;;;;;;;5067085;28;20064;-82
2021/10/21 13:07:05;;;;;;;3.53;0.90;;;;;;;;;;5070112;28;20036;-82
2021/10/21 13:09:32;;;;;;;2.45;1.10;;;;;;;;;;5070533;28;20049;-82
2021/10/21 13:11:59;;;;;;;3.00;0.77;;;;;;;;;;5069829;28;20056;-82
2021/10/21 13:14:29;;;;;;;2.40;0.52;;;;;;;;;;5068834;28;20057;-82
2021/10/21 13:16:56;;;;;;;2.33;0.63;;;;;;;;;;5069717;28;20061;-82
2021/10/21 13:19:22;;;;;;;3.65;0.73;;;;;;;;;;5067296;28;20598;-82
2021/10/21 13:21:49;;;;;;;3.45;0.80;;;;;;;;;;5067594;28;20082;-82
2021/10/21 13:24:15;;;;;;;3.28;0.70;;;;;;;;;;5071017;28;20063;-83
2021/10/21 13:26:42;;;;;;;3.10;0.60;;;;;;;;;;5067137;28;20056;-82
2021/10/21 13:29:08;;;;;;;1.45;0.63;;;;;;;;;;5062559;28;20075;-83
2021/10/21 13:31:34;;;;;;;3.67;0.70;;;;;;;;;;5068684;28;21419;-82
2021/10/21 13:34:01;;;;;;;2.35;0.88;;;;;;;;;;5044730;28;20061;-83
2021/10/21 13:36:27;;;;;;;1.95;0.63;;;;;;;;;;5069295;28;20063;-82
2021/10/21 13:38:55;;;;;;;0.93;0.50;;;;;;;;;;5063086;28;20068;-79
2021/10/21 13:41:22;;;;;;;4.30;0.80;;;;;;;;;;5064759;28;20063;-80
2021/10/21 13:43:49;;;;;;;2.83;0.85;;;;;;;;;;5065366;28;20048;-79
2021/10/21 13:46:16;;;;;;;3.28;0.70;;;;;;;;;;5062308;28;20060;-80
2021/10/21 13:48:42;;;;;;;4.22;0.77;;;;;;;;;;5066950;28;20520;-80
2021/10/21 13:51:09;;;;;;;2.17;0.63;;;;;;;;;;5059517;28;20057;-80
2021/10/21 13:53:38;;;;;;;3.35;0.65;;;;;;;;;;5036009;28;20492;-80
2021/10/21 13:56:08;;;;;;;3.17;0.80;;;;;;;;;;5061510;28;20041;-81
2021/10/21 13:58:34;;;;;;;2.53;0.52;;;;;;;;;;5058912;28;21116;-81
2021/10/21 14:01:00;;;;;;;2.30;0.60;;;;;;;;;;5061727;28;20105;-80
2021/10/21 14:03:27;;;;;;;3.00;0.80;;;;;;;;;;5064796;28;20056;-80
2021/10/21 14:05:54;;;;;;;2.33;0.68;;;;;;;;;;5066793;28;20638;-80
2021/10/21 14:08:21;;;;;;;2.40;0.60;;;;;;;;;;5058495;28;20535;-80
2021/10/21 14:10:47;;;;;;;2.88;0.65;;;;;;;;;;5065827;28;20134;-80
2021/10/21 14:13:13;;;;;;;2.42;0.80;;;;;;;;;;5048190;28;20060;-80
2021/10/21 14:15:40;;;;;;;1.90;0.70;;;;;;;;;;5068418;28;20844;-80
2021/10/21 14:18:07;;;;;;;2.03;0.80;;;;;;;;;;5065853;28;20492;-80
2021/10/21 14:20:33;;;;;;;3.08;0.70;;;;;;;;;;5063585;28;20190;-80
2021/10/21 14:23:00;;;;;;;1.65;0.47;;;;;;;;;;5059450;28;20550;-80
2021/10/21 14:25:27;;;;;;;2.95;0.75;;;;;;;;;;5063450;28;20496;-81
2021/10/21 14:27:53;;;;;;;2.78;0.60;;;;;;;;;;5060858;28;20112;-81
2021/10/21 14:30:20;;;;;;;2.35;0.52;;;;;;;;;;5063949;28;20664;-80
2021/10/21 14:32:47;;;;;;;2.45;0.75;;;;;;;;;;5073399;28;20060;-80
2021/10/21 14:35:15;;;;;;;2.00;0.70;;;;;;;;;;5060723;28;20080;-80
2021/10/21 14:37:42;;;;;;;4.32;0.80;;;;;;;;;;5064757;28;20037;-80
2021/10/21 14:40:10;;;;;;;2.05;0.50;;;;;;;;;;5059920;28;20437;-79
2021/10/21 14:42:38;;;;;;;1.60;0.50;;;;;;;;;;5064772;28;20347;-78
2021/10/21 14:45:05;;;;;;;2.10;0.60;;;;;;;;;;5064013;28;20060;-79
2021/10/21 14:47:32;;;;;;;3.50;0.63;;;;;;;;;;5067654;28;20032;-79
2021/10/21 14:49:58;;;;;;;3.63;0.70;;;;;;;;;;5067463;28;20072;-79